Pateros, WA (98846)

3:55 PM PST on December 25, 2014 (GMT -0800)
Wildcat Ridge | Change Station
CLOSE
Current Station
Personal Weather Station
Location: Twisp, WA
Elevation: 2789 ft
Nearby Weather Stations

Elev 2789 ft 48.35 °N, 120.13 °W | Updated 25 seconds ago

Mostly Cloudy
Mostly Cloudy
34.2 °F
Feels Like 28 °F
N
7.0
Wind Variable Wind from NW
Gusts 8.0 mph

Today
High -- | Low -- °F
--% Chance of Precip.
Yesterday
High -- | Low -- °F
Precip. -- in
7:48 AM 4:09 PM
Waxing Crescent, 20% visible
Pressure 30.14 in
Visibility 10.0 miles
Clouds Overcast 8000 ft
Windchill 28 °F
Dew Point 20 °F
Humidity 56%
Rainfall 0.00 in
Snow Depth Not available.
UV 0 out of 12
Pollen .30 out of 12
Air Quality Not available.
Flu Activity Not available.
METAR KOMK 252253Z AUTO VRB03KT 10SM OVC080 03/M02 A3009 RMK AO2 SLP204 T00281017

More Conditions Fewer Conditions

Pressure 30.14 in
Visibility 10.0 miles
Clouds Overcast 8000 ft
Windchill 28 °F
Dew Point 20 °F
Humidity 56%
Rainfall 0.00 in
Snow Depth Not available.
UV 0 out of 12
Pollen .30 out of 12
Air Quality Not available.
Flu Activity Not available.
METAR KOMK 252253Z AUTO VRB03KT 10SM OVC080 03/M02 A3009 RMK AO2 SLP204 T00281017

More Conditions Fewer Conditions

10-Day Weather Forecast

Almanac

Astronomy

Dec. 25, 2014 Rise Set
Actual Time
Civil Twilight
Nautical Twilight
Astronomical Twilight
Moon
Length of Visible Light
Length of Day
Tomorrow will be .
, % of the Moon is Illuminated

Today's Extremes

State Highs State Lows

Community

WunderPhotos

Upload Photos

1,780,458 photos uploaded!

WunderBlogs® & News

Nearby

Air Quality

  Air Quality AQ Index Pollutant
Not available.

Snow Depth

Station Depth Elevation

Earthquake Activity

City Distance Mag. Time & Date
Minimum magnitude displayed is 2.5.

Coastal Water Temperatures

Place Temperature

Nearby Weather Stations